RYR363C LEMI-EGHH
Flight info
| Callsign | RYR363C |
|---|---|
| Flight time | 2h 10m |
| Altitude | 38000 |
| Route | ALT N851 MITOS N608 COMPI Y90 USKAR DCT MOPAS DCT GIROM DCT AGN DCT SECHE DCT UVELI DCT CNA DCT MANAK UY110 ORIST Y110 THRED |
| Aircraft | B738/M-SDE3FGILRWY/SB1 |
Departure
| Time | 2026-05-07 17:19 |
|---|---|
| Airport | Region of Murcia International Airport (LEMI) |
Arrival
| Time | 2026-05-07 19:30 |
|---|---|
| Airport | Bournemouth Airport (EGHH) |
| Time | Latitude | Longitude | Altitude | Speed | Heading |
|---|---|---|---|---|---|
| 2026-05-07 16:48 | 37.80492 | -1.12947 | 646 ft | 0 kts | 315° |
| 2026-05-07 17:09 | 37.80479 | -1.12931 | 646 ft | 4 kts | 315° |
| 2026-05-07 17:09 | 37.80461 | -1.12908 | 646 ft | 3 kts | 315° |
| 2026-05-07 17:10 | 37.80446 | -1.12887 | 648 ft | 4 kts | 285° |
| 2026-05-07 17:10 | 37.80449 | -1.12861 | 647 ft | 4 kts | 230° |
| 2026-05-07 17:10 | 37.80460 | -1.12846 | 646 ft | 1 kts | 226° |
| 2026-05-07 17:10 | 37.80461 | -1.12844 | 646 ft | 0 kts | 226° |
| 2026-05-07 17:13 | 37.80442 | -1.12869 | 647 ft | 7 kts | 226° |
| 2026-05-07 17:13 | 37.80397 | -1.12927 | 648 ft | 11 kts | 226° |
| 2026-05-07 17:13 | 37.80342 | -1.12999 | 646 ft | 11 kts | 226° |
| 2026-05-07 17:14 | 37.80288 | -1.13069 | 646 ft | 11 kts | 226° |
| 2026-05-07 17:14 | 37.80236 | -1.13136 | 647 ft | 11 kts | 225° |
| 2026-05-07 17:14 | 37.80171 | -1.13146 | 646 ft | 10 kts | 146° |
| 2026-05-07 17:14 | 37.80120 | -1.13090 | 646 ft | 9 kts | 149° |
| 2026-05-07 17:15 | 37.80063 | -1.13105 | 649 ft | 9 kts | 223° |
| 2026-05-07 17:15 | 37.80017 | -1.13162 | 647 ft | 13 kts | 227° |
| 2026-05-07 17:15 | 37.79932 | -1.13277 | 650 ft | 18 kts | 226° |
| 2026-05-07 17:15 | 37.79844 | -1.13386 | 651 ft | 17 kts | 226° |
| 2026-05-07 17:16 | 37.79762 | -1.13492 | 650 ft | 17 kts | 226° |
| 2026-05-07 17:16 | 37.79684 | -1.13595 | 648 ft | 16 kts | 226° |
| 2026-05-07 17:16 | 37.79608 | -1.13694 | 646 ft | 15 kts | 226° |
| 2026-05-07 17:16 | 37.79536 | -1.13782 | 646 ft | 12 kts | 208° |
| 2026-05-07 17:17 | 37.79471 | -1.13755 | 646 ft | 9 kts | 128° |
| 2026-05-07 17:17 | 37.79431 | -1.13693 | 645 ft | 9 kts | 131° |
| 2026-05-07 17:17 | 37.79413 | -1.13625 | 643 ft | 8 kts | 59° |
| 2026-05-07 17:17 | 37.79440 | -1.13594 | 643 ft | 0 kts | 42° |
| 2026-05-07 17:18 | 37.79527 | -1.13487 | 644 ft | 55 kts | 45° |
| 2026-05-07 17:18 | 37.80015 | -1.12858 | 643 ft | 143 kts | 45° |
| 2026-05-07 17:19 | 37.80851 | -1.11744 | 953 ft | 196 kts | 45° |
| 2026-05-07 17:19 | 37.81859 | -1.10456 | 1869 ft | 215 kts | 45° |
| 2026-05-07 17:19 | 37.82935 | -1.09127 | 2911 ft | 224 kts | 43° |
| 2026-05-07 17:19 | 37.84098 | -1.07771 | 3789 ft | 227 kts | 42° |
| 2026-05-07 17:20 | 37.85260 | -1.06419 | 4588 ft | 231 kts | 43° |
| 2026-05-07 17:20 | 37.86470 | -1.04998 | 5131 ft | 242 kts | 42° |
| 2026-05-07 17:20 | 37.87711 | -1.03538 | 5741 ft | 248 kts | 42° |
| 2026-05-07 17:20 | 37.88989 | -1.02030 | 6360 ft | 255 kts | 42° |
| 2026-05-07 17:21 | 37.90339 | -1.00436 | 6740 ft | 274 kts | 42° |
| 2026-05-07 17:21 | 37.91756 | -0.98758 | 7447 ft | 282 kts | 42° |
| 2026-05-07 17:21 | 37.93175 | -0.97076 | 8369 ft | 286 kts | 42° |
| 2026-05-07 17:21 | 37.94639 | -0.95338 | 9261 ft | 291 kts | 42° |
| 2026-05-07 17:22 | 37.96125 | -0.93577 | 10219 ft | 295 kts | 42° |
| 2026-05-07 17:22 | 37.97674 | -0.91745 | 10656 ft | 317 kts | 42° |
| 2026-05-07 17:22 | 37.99341 | -0.89756 | 11019 ft | 337 kts | 43° |
| 2026-05-07 17:22 | 38.01069 | -0.87691 | 11745 ft | 345 kts | 43° |
| 2026-05-07 17:23 | 38.02823 | -0.85597 | 12683 ft | 347 kts | 42° |
| 2026-05-07 17:23 | 38.04591 | -0.83487 | 13532 ft | 352 kts | 42° |
| 2026-05-07 17:23 | 38.06390 | -0.81337 | 14237 ft | 358 kts | 42° |
| 2026-05-07 17:23 | 38.08217 | -0.79154 | 14966 ft | 363 kts | 42° |
| 2026-05-07 17:24 | 38.10040 | -0.76975 | 15689 ft | 367 kts | 42° |
| 2026-05-07 17:24 | 38.11909 | -0.74740 | 16404 ft | 371 kts | 41° |
| 2026-05-07 17:24 | 38.13806 | -0.72481 | 17143 ft | 375 kts | 41° |
| 2026-05-07 17:24 | 38.15720 | -0.70208 | 17879 ft | 379 kts | 41° |
| 2026-05-07 17:25 | 38.17658 | -0.67904 | 18557 ft | 383 kts | 41° |
| 2026-05-07 17:25 | 38.19612 | -0.65579 | 19165 ft | 387 kts | 42° |
| 2026-05-07 17:25 | 38.21149 | -0.63747 | 19643 ft | 391 kts | 42° |
| 2026-05-07 17:25 | 38.23146 | -0.61367 | 20269 ft | 396 kts | 42° |
| 2026-05-07 17:26 | 38.25161 | -0.58963 | 20971 ft | 398 kts | 42° |
| 2026-05-07 17:26 | 38.26990 | -0.56374 | 21613 ft | 403 kts | 58° |
| 2026-05-07 17:26 | 38.28162 | -0.53136 | 22277 ft | 405 kts | 69° |
| 2026-05-07 17:26 | 38.29188 | -0.49787 | 22908 ft | 408 kts | 69° |
| 2026-05-07 17:27 | 38.30229 | -0.46405 | 23454 ft | 413 kts | 69° |
| 2026-05-07 17:27 | 38.31296 | -0.42992 | 23918 ft | 418 kts | 68° |
| 2026-05-07 17:27 | 38.32389 | -0.39539 | 24340 ft | 424 kts | 68° |
| 2026-05-07 17:27 | 38.33506 | -0.36034 | 24736 ft | 429 kts | 67° |
| 2026-05-07 17:28 | 38.34635 | -0.32493 | 25123 ft | 434 kts | 67° |
| 2026-05-07 17:28 | 38.35778 | -0.28905 | 25533 ft | 439 kts | 66° |
| 2026-05-07 17:28 | 38.36833 | -0.25638 | 25884 ft | 443 kts | 65° |
| 2026-05-07 17:28 | 38.38045 | -0.22001 | 26275 ft | 448 kts | 65° |
| 2026-05-07 17:29 | 38.39179 | -0.18630 | 26624 ft | 452 kts | 64° |
| 2026-05-07 17:29 | 38.40422 | -0.14922 | 26995 ft | 457 kts | 64° |
| 2026-05-07 17:29 | 38.41671 | -0.11168 | 27356 ft | 462 kts | 64° |
| 2026-05-07 17:29 | 38.43076 | -0.07483 | 27677 ft | 462 kts | 52° |
| 2026-05-07 17:30 | 38.45233 | -0.04514 | 28033 ft | 454 kts | 32° |
| 2026-05-07 17:30 | 38.47331 | -0.02851 | 28388 ft | 446 kts | 19° |
| 2026-05-07 17:30 | 38.50210 | -0.01524 | 28822 ft | 436 kts | 5° |
| 2026-05-07 17:30 | 38.53185 | -0.01144 | 29219 ft | 427 kts | 354° |
| 2026-05-07 17:31 | 38.56163 | -0.01121 | 29630 ft | 428 kts | 352° |
| 2026-05-07 17:31 | 38.59145 | -0.01153 | 30030 ft | 430 kts | 352° |
| 2026-05-07 17:31 | 38.62143 | -0.01192 | 30377 ft | 431 kts | 352° |
| 2026-05-07 17:31 | 38.65099 | -0.01217 | 30698 ft | 433 kts | 352° |
| 2026-05-07 17:32 | 38.68143 | -0.01227 | 30841 ft | 440 kts | 353° |
| 2026-05-07 17:32 | 38.70947 | -0.01225 | 31020 ft | 444 kts | 353° |
| 2026-05-07 17:32 | 38.74048 | -0.01212 | 31354 ft | 446 kts | 353° |
| 2026-05-07 17:32 | 38.77140 | -0.01190 | 31813 ft | 443 kts | 353° |
| 2026-05-07 17:33 | 38.80212 | -0.01164 | 32340 ft | 440 kts | 353° |
| 2026-05-07 17:33 | 38.83259 | -0.01138 | 32843 ft | 437 kts | 352° |
| 2026-05-07 17:33 | 38.86295 | -0.01116 | 33242 ft | 436 kts | 352° |
| 2026-05-07 17:33 | 38.89326 | -0.01096 | 33649 ft | 435 kts | 352° |
| 2026-05-07 17:34 | 38.92321 | -0.01079 | 33871 ft | 438 kts | 353° |
| 2026-05-07 17:34 | 38.95384 | -0.01063 | 34074 ft | 441 kts | 353° |
| 2026-05-07 17:34 | 38.98453 | -0.01044 | 34397 ft | 441 kts | 353° |
| 2026-05-07 17:34 | 39.01519 | -0.01022 | 34711 ft | 440 kts | 353° |
| 2026-05-07 17:35 | 39.04584 | -0.01001 | 34960 ft | 441 kts | 353° |
| 2026-05-07 17:35 | 39.07663 | -0.00982 | 35197 ft | 443 kts | 353° |
| 2026-05-07 17:35 | 39.10743 | -0.00961 | 35459 ft | 443 kts | 353° |
| 2026-05-07 17:35 | 39.13788 | -0.00941 | 35715 ft | 444 kts | 353° |
| 2026-05-07 17:36 | 39.16892 | -0.00922 | 35841 ft | 448 kts | 353° |
| 2026-05-07 17:36 | 39.20013 | -0.00902 | 36083 ft | 448 kts | 354° |
| 2026-05-07 17:36 | 39.23130 | -0.00880 | 36398 ft | 447 kts | 354° |
| 2026-05-07 17:36 | 39.26241 | -0.00858 | 36657 ft | 447 kts | 354° |
| 2026-05-07 17:37 | 39.29356 | -0.00838 | 36857 ft | 449 kts | 354° |
| 2026-05-07 17:37 | 39.32485 | -0.00818 | 37091 ft | 449 kts | 354° |
| 2026-05-07 17:37 | 39.35623 | -0.00564 | 37352 ft | 456 kts | 2° |
| 2026-05-07 17:37 | 39.38753 | 0.00328 | 37461 ft | 465 kts | 10° |
| 2026-05-07 17:38 | 39.41835 | 0.01471 | 37599 ft | 468 kts | 11° |
| 2026-05-07 17:38 | 39.44949 | 0.02684 | 37873 ft | 467 kts | 12° |
| 2026-05-07 17:38 | 39.51213 | 0.05113 | 37954 ft | 472 kts | 11° |
| 2026-05-07 17:39 | 39.57516 | 0.07487 | 37942 ft | 469 kts | 11° |
| 2026-05-07 17:39 | 39.63750 | 0.09804 | 37945 ft | 465 kts | 11° |
| 2026-05-07 17:40 | 39.69921 | 0.12092 | 37948 ft | 464 kts | 11° |
| 2026-05-07 17:40 | 39.76132 | 0.14403 | 37950 ft | 464 kts | 11° |
| 2026-05-07 17:41 | 39.82342 | 0.16720 | 37965 ft | 464 kts | 11° |
| 2026-05-07 17:41 | 39.88558 | 0.19045 | 37953 ft | 465 kts | 11° |
| 2026-05-07 17:42 | 39.94783 | 0.21378 | 37949 ft | 466 kts | 11° |
| 2026-05-07 17:42 | 40.00982 | 0.23704 | 37947 ft | 467 kts | 11° |
| 2026-05-07 17:43 | 40.07235 | 0.26051 | 37953 ft | 468 kts | 11° |
| 2026-05-07 17:43 | 40.13507 | 0.28407 | 37965 ft | 469 kts | 12° |
| 2026-05-07 17:44 | 40.19786 | 0.30772 | 37961 ft | 470 kts | 12° |
| 2026-05-07 17:44 | 40.26033 | 0.33131 | 37985 ft | 471 kts | 12° |
| 2026-05-07 17:45 | 40.32335 | 0.35514 | 37963 ft | 472 kts | 12° |
| 2026-05-07 17:45 | 40.38642 | 0.37910 | 37962 ft | 471 kts | 12° |
| 2026-05-07 17:46 | 40.44943 | 0.40311 | 37949 ft | 472 kts | 12° |
| 2026-05-07 17:46 | 40.51214 | 0.42704 | 37972 ft | 473 kts | 12° |
| 2026-05-07 17:47 | 40.57539 | 0.45123 | 37968 ft | 474 kts | 12° |
| 2026-05-07 17:47 | 40.63873 | 0.47550 | 37957 ft | 474 kts | 12° |
| 2026-05-07 17:48 | 40.70215 | 0.49986 | 37959 ft | 475 kts | 12° |
| 2026-05-07 17:48 | 40.76518 | 0.52411 | 37957 ft | 475 kts | 12° |
| 2026-05-07 17:49 | 40.82858 | 0.54855 | 37960 ft | 475 kts | 12° |
| 2026-05-07 17:49 | 40.89204 | 0.57306 | 37957 ft | 475 kts | 12° |
| 2026-05-07 17:50 | 40.95554 | 0.59764 | 37949 ft | 475 kts | 12° |
| 2026-05-07 17:50 | 41.01893 | 0.62223 | 37959 ft | 474 kts | 12° |
| 2026-05-07 17:51 | 41.08179 | 0.64666 | 37958 ft | 474 kts | 12° |
| 2026-05-07 17:51 | 41.14498 | 0.67126 | 37971 ft | 473 kts | 13° |
| 2026-05-07 17:52 | 41.20814 | 0.69584 | 37949 ft | 473 kts | 12° |
| 2026-05-07 17:52 | 41.27077 | 0.72024 | 37954 ft | 472 kts | 12° |
| 2026-05-07 17:53 | 41.33378 | 0.74486 | 37950 ft | 472 kts | 13° |
| 2026-05-07 17:53 | 41.39679 | 0.76953 | 37935 ft | 472 kts | 13° |
| 2026-05-07 17:54 | 41.45969 | 0.79421 | 37947 ft | 471 kts | 13° |
| 2026-05-07 17:54 | 41.52223 | 0.81879 | 37949 ft | 472 kts | 13° |
| 2026-05-07 17:55 | 41.58546 | 0.84369 | 37960 ft | 475 kts | 13° |
| 2026-05-07 17:55 | 41.64896 | 0.86875 | 37944 ft | 477 kts | 13° |
| 2026-05-07 17:56 | 41.71256 | 0.89392 | 37946 ft | 477 kts | 13° |
| 2026-05-07 17:56 | 41.77615 | 0.91914 | 37965 ft | 476 kts | 13° |
| 2026-05-07 17:57 | 41.82892 | 0.94010 | 37950 ft | 475 kts | 13° |
| 2026-05-07 17:57 | 41.90246 | 0.96937 | 37936 ft | 473 kts | 13° |
| 2026-05-07 17:58 | 41.96534 | 0.99445 | 37939 ft | 470 kts | 13° |
| 2026-05-07 17:58 | 42.02790 | 1.01946 | 37945 ft | 468 kts | 13° |
| 2026-05-07 17:59 | 42.08971 | 1.04420 | 37958 ft | 465 kts | 13° |
| 2026-05-07 17:59 | 42.15246 | 1.06311 | 37951 ft | 459 kts | 0° |
| 2026-05-07 18:00 | 42.21549 | 1.05965 | 37976 ft | 453 kts | 350° |
| 2026-05-07 18:00 | 42.27574 | 1.05191 | 37977 ft | 454 kts | 351° |
| 2026-05-07 18:01 | 42.33884 | 1.04456 | 37957 ft | 456 kts | 351° |
| 2026-05-07 18:01 | 42.40170 | 1.03766 | 37963 ft | 457 kts | 351° |
| 2026-05-07 18:02 | 42.49466 | 1.02750 | 37959 ft | 460 kts | 351° |
| 2026-05-07 18:03 | 42.55294 | 1.02118 | 37963 ft | 462 kts | 351° |
| 2026-05-07 18:03 | 42.61461 | 1.01450 | 37968 ft | 463 kts | 351° |
| 2026-05-07 18:04 | 42.67584 | 1.00780 | 37949 ft | 464 kts | 352° |
| 2026-05-07 18:04 | 42.74017 | 1.00081 | 37955 ft | 464 kts | 351° |
| 2026-05-07 18:05 | 42.80453 | 0.99376 | 37951 ft | 463 kts | 351° |
| 2026-05-07 18:05 | 42.86880 | 0.98670 | 37943 ft | 463 kts | 351° |
| 2026-05-07 18:06 | 42.93296 | 0.97968 | 37946 ft | 462 kts | 352° |
| 2026-05-07 18:06 | 42.99658 | 0.97269 | 37950 ft | 461 kts | 351° |
| 2026-05-07 18:07 | 43.05785 | 0.96593 | 37949 ft | 460 kts | 351° |
| 2026-05-07 18:07 | 43.11652 | 0.95945 | 37937 ft | 459 kts | 351° |
| 2026-05-07 18:08 | 43.17761 | 0.95269 | 37943 ft | 457 kts | 351° |
| 2026-05-07 18:08 | 43.23844 | 0.94594 | 37948 ft | 456 kts | 351° |
| 2026-05-07 18:09 | 43.29418 | 0.93974 | 37936 ft | 456 kts | 351° |
| 2026-05-07 18:09 | 43.35730 | 0.93271 | 37936 ft | 455 kts | 351° |
| 2026-05-07 18:10 | 43.42038 | 0.92566 | 37937 ft | 454 kts | 351° |
| 2026-05-07 18:10 | 43.48331 | 0.91862 | 37937 ft | 454 kts | 352° |
| 2026-05-07 18:11 | 43.54350 | 0.91188 | 37939 ft | 453 kts | 352° |
| 2026-05-07 18:11 | 43.60356 | 0.90513 | 37936 ft | 453 kts | 352° |
| 2026-05-07 18:12 | 43.66404 | 0.89832 | 37939 ft | 453 kts | 352° |
| 2026-05-07 18:12 | 43.72694 | 0.89123 | 37933 ft | 454 kts | 352° |
| 2026-05-07 18:13 | 43.78990 | 0.88412 | 37935 ft | 454 kts | 352° |
| 2026-05-07 18:13 | 43.85284 | 0.87699 | 37942 ft | 454 kts | 352° |
| 2026-05-07 18:14 | 43.91377 | 0.85802 | 37931 ft | 445 kts | 333° |
| 2026-05-07 18:14 | 43.96942 | 0.82211 | 37938 ft | 444 kts | 330° |
| 2026-05-07 18:15 | 44.02524 | 0.78498 | 37937 ft | 445 kts | 330° |
| 2026-05-07 18:15 | 44.08140 | 0.74820 | 37949 ft | 447 kts | 331° |
| 2026-05-07 18:16 | 44.13746 | 0.71181 | 37941 ft | 448 kts | 331° |
| 2026-05-07 18:16 | 44.19398 | 0.67513 | 37937 ft | 447 kts | 331° |
| 2026-05-07 18:17 | 44.25033 | 0.63846 | 37942 ft | 446 kts | 331° |
| 2026-05-07 18:17 | 44.30651 | 0.60180 | 37935 ft | 446 kts | 331° |
| 2026-05-07 18:18 | 44.36247 | 0.56519 | 37944 ft | 449 kts | 331° |
| 2026-05-07 18:18 | 44.41915 | 0.52805 | 37936 ft | 451 kts | 331° |
| 2026-05-07 18:19 | 44.47612 | 0.49053 | 37931 ft | 453 kts | 331° |
| 2026-05-07 18:19 | 44.53314 | 0.45268 | 37933 ft | 454 kts | 331° |
| 2026-05-07 18:20 | 44.59021 | 0.41471 | 37943 ft | 454 kts | 331° |
| 2026-05-07 18:20 | 44.64683 | 0.37697 | 37945 ft | 453 kts | 331° |
| 2026-05-07 18:21 | 44.70373 | 0.33898 | 37934 ft | 452 kts | 331° |
| 2026-05-07 18:21 | 44.76042 | 0.30104 | 37931 ft | 451 kts | 331° |
| 2026-05-07 18:22 | 44.81691 | 0.26316 | 37930 ft | 449 kts | 331° |
| 2026-05-07 18:22 | 44.87321 | 0.22531 | 37931 ft | 448 kts | 331° |
| 2026-05-07 18:23 | 44.92907 | 0.18768 | 37944 ft | 448 kts | 331° |
| 2026-05-07 18:23 | 44.98524 | 0.14974 | 37936 ft | 448 kts | 330° |
| 2026-05-07 18:24 | 45.04139 | 0.11176 | 37945 ft | 448 kts | 330° |
| 2026-05-07 18:24 | 45.09763 | 0.07367 | 37937 ft | 448 kts | 330° |
| 2026-05-07 18:25 | 45.15378 | 0.03556 | 37938 ft | 448 kts | 330° |
| 2026-05-07 18:25 | 45.20962 | -0.00243 | 37954 ft | 448 kts | 330° |
| 2026-05-07 18:26 | 45.26578 | -0.04073 | 37938 ft | 448 kts | 330° |
| 2026-05-07 18:26 | 45.32187 | -0.07906 | 37938 ft | 448 kts | 330° |
| 2026-05-07 18:27 | 45.37804 | -0.11754 | 37938 ft | 448 kts | 330° |
| 2026-05-07 18:27 | 45.43380 | -0.15582 | 37940 ft | 448 kts | 330° |
| 2026-05-07 18:28 | 45.48982 | -0.19436 | 37942 ft | 447 kts | 330° |
| 2026-05-07 18:28 | 45.54584 | -0.23299 | 37942 ft | 447 kts | 330° |
| 2026-05-07 18:29 | 45.60178 | -0.27165 | 37948 ft | 447 kts | 330° |
| 2026-05-07 18:29 | 45.65745 | -0.31089 | 37939 ft | 445 kts | 326° |
| 2026-05-07 18:30 | 45.70662 | -0.36223 | 37941 ft | 440 kts | 317° |
| 2026-05-07 18:30 | 45.75421 | -0.41718 | 37950 ft | 439 kts | 317° |
| 2026-05-07 18:31 | 45.80192 | -0.47192 | 37955 ft | 440 kts | 317° |
| 2026-05-07 18:31 | 45.84995 | -0.52654 | 37953 ft | 441 kts | 318° |
| 2026-05-07 18:32 | 45.89772 | -0.58078 | 37947 ft | 441 kts | 318° |
| 2026-05-07 18:32 | 45.94581 | -0.63550 | 37953 ft | 441 kts | 318° |
| 2026-05-07 18:33 | 45.99393 | -0.69040 | 37957 ft | 442 kts | 318° |
| 2026-05-07 18:33 | 46.04202 | -0.74539 | 37946 ft | 442 kts | 318° |
| 2026-05-07 18:34 | 46.08974 | -0.80010 | 37965 ft | 442 kts | 318° |
| 2026-05-07 18:34 | 46.13774 | -0.85525 | 37950 ft | 441 kts | 318° |
| 2026-05-07 18:35 | 46.18565 | -0.91041 | 37960 ft | 441 kts | 318° |
| 2026-05-07 18:35 | 46.23354 | -0.96566 | 37963 ft | 441 kts | 318° |
| 2026-05-07 18:36 | 46.28137 | -1.02088 | 37964 ft | 440 kts | 318° |
| 2026-05-07 18:36 | 46.32884 | -1.07581 | 37965 ft | 439 kts | 318° |
| 2026-05-07 18:37 | 46.37654 | -1.13114 | 37975 ft | 439 kts | 318° |
| 2026-05-07 18:37 | 46.42409 | -1.18644 | 37962 ft | 439 kts | 317° |
| 2026-05-07 18:38 | 46.47167 | -1.24191 | 37966 ft | 439 kts | 318° |
| 2026-05-07 18:38 | 46.51893 | -1.29714 | 37964 ft | 439 kts | 318° |
| 2026-05-07 18:39 | 46.56644 | -1.35276 | 37982 ft | 439 kts | 318° |
| 2026-05-07 18:39 | 46.61606 | -1.40477 | 37963 ft | 444 kts | 329° |
| 2026-05-07 18:40 | 46.67189 | -1.44375 | 37970 ft | 446 kts | 332° |
| 2026-05-07 18:40 | 46.72772 | -1.48204 | 37967 ft | 446 kts | 331° |
| 2026-05-07 18:41 | 46.78352 | -1.52141 | 37970 ft | 445 kts | 330° |
| 2026-05-07 18:41 | 46.83916 | -1.56099 | 37968 ft | 444 kts | 331° |
| 2026-05-07 18:42 | 46.88812 | -1.58492 | 37969 ft | 451 kts | 347° |
| 2026-05-07 18:42 | 46.95094 | -1.59305 | 37967 ft | 455 kts | 354° |
| 2026-05-07 18:43 | 47.02446 | -1.59909 | 37963 ft | 456 kts | 353° |
| 2026-05-07 18:43 | 47.07715 | -1.60425 | 37965 ft | 457 kts | 353° |
| 2026-05-07 18:44 | 47.14057 | -1.61087 | 37964 ft | 457 kts | 353° |
| 2026-05-07 18:44 | 47.20382 | -1.61826 | 37971 ft | 456 kts | 352° |
| 2026-05-07 18:45 | 47.27713 | -1.62853 | 37964 ft | 456 kts | 352° |
| 2026-05-07 18:45 | 47.33007 | -1.63574 | 37964 ft | 455 kts | 352° |
| 2026-05-07 18:46 | 47.39266 | -1.64435 | 37975 ft | 454 kts | 352° |
| 2026-05-07 18:46 | 47.45554 | -1.65335 | 37966 ft | 453 kts | 352° |
| 2026-05-07 18:47 | 47.51829 | -1.66238 | 37972 ft | 452 kts | 352° |
| 2026-05-07 18:47 | 47.58090 | -1.67136 | 37972 ft | 452 kts | 352° |
| 2026-05-07 18:48 | 47.64302 | -1.68028 | 37984 ft | 451 kts | 352° |
| 2026-05-07 18:48 | 47.70552 | -1.68927 | 37978 ft | 451 kts | 352° |
| 2026-05-07 18:49 | 47.76807 | -1.69829 | 37978 ft | 452 kts | 352° |
| 2026-05-07 18:49 | 47.83067 | -1.70734 | 37995 ft | 452 kts | 352° |
| 2026-05-07 18:50 | 47.89295 | -1.71637 | 37987 ft | 453 kts | 352° |
| 2026-05-07 18:50 | 47.95560 | -1.72547 | 37995 ft | 453 kts | 352° |
| 2026-05-07 18:51 | 48.01829 | -1.73460 | 37995 ft | 453 kts | 352° |
| 2026-05-07 18:51 | 48.08108 | -1.74321 | 37992 ft | 453 kts | 354° |
| 2026-05-07 18:52 | 48.14418 | -1.74495 | 37997 ft | 454 kts | 358° |
| 2026-05-07 18:52 | 48.20683 | -1.74442 | 37993 ft | 454 kts | 358° |
| 2026-05-07 18:53 | 48.26996 | -1.74444 | 37995 ft | 454 kts | 357° |
| 2026-05-07 18:53 | 48.33311 | -1.74503 | 37995 ft | 453 kts | 357° |
| 2026-05-07 18:54 | 48.39599 | -1.74581 | 37991 ft | 453 kts | 357° |
| 2026-05-07 18:54 | 48.45855 | -1.74658 | 37999 ft | 452 kts | 357° |
| 2026-05-07 18:55 | 48.52150 | -1.74734 | 37991 ft | 452 kts | 357° |
| 2026-05-07 18:55 | 48.58438 | -1.74809 | 37902 ft | 453 kts | 357° |
| 2026-05-07 18:55 | 48.61607 | -1.74848 | 37416 ft | 455 kts | 357° |
| 2026-05-07 18:56 | 48.64760 | -1.74885 | 36891 ft | 453 kts | 357° |
| 2026-05-07 18:56 | 48.67904 | -1.74922 | 36362 ft | 451 kts | 357° |
| 2026-05-07 18:56 | 48.71043 | -1.74959 | 35814 ft | 451 kts | 357° |
| 2026-05-07 18:56 | 48.74178 | -1.74997 | 35222 ft | 452 kts | 357° |
| 2026-05-07 18:57 | 48.77284 | -1.75035 | 34642 ft | 452 kts | 357° |
| 2026-05-07 18:57 | 48.80435 | -1.75073 | 34007 ft | 455 kts | 357° |
| 2026-05-07 18:57 | 48.83606 | -1.75111 | 33283 ft | 456 kts | 357° |
| 2026-05-07 18:57 | 48.86769 | -1.75149 | 32601 ft | 456 kts | 357° |
| 2026-05-07 18:58 | 48.89946 | -1.75187 | 31923 ft | 456 kts | 357° |
| 2026-05-07 18:58 | 48.93120 | -1.75196 | 31216 ft | 457 kts | 359° |
| 2026-05-07 18:58 | 48.96286 | -1.75105 | 30677 ft | 454 kts | 359° |
| 2026-05-07 18:58 | 48.99425 | -1.74967 | 30184 ft | 450 kts | 360° |
| 2026-05-07 18:59 | 49.02543 | -1.74818 | 29631 ft | 446 kts | 360° |
| 2026-05-07 18:59 | 49.05626 | -1.74676 | 29117 ft | 440 kts | 359° |
| 2026-05-07 18:59 | 49.08672 | -1.74545 | 28642 ft | 435 kts | 359° |
| 2026-05-07 18:59 | 49.11637 | -1.74424 | 28160 ft | 430 kts | 359° |
| 2026-05-07 19:00 | 49.14607 | -1.74309 | 27664 ft | 425 kts | 359° |
| 2026-05-07 19:00 | 49.17548 | -1.74197 | 27211 ft | 421 kts | 359° |
| 2026-05-07 19:00 | 49.20464 | -1.74088 | 26731 ft | 417 kts | 359° |
| 2026-05-07 19:00 | 49.23353 | -1.73981 | 26266 ft | 413 kts | 359° |
| 2026-05-07 19:01 | 49.26217 | -1.73873 | 25811 ft | 410 kts | 359° |
| 2026-05-07 19:01 | 49.29057 | -1.73767 | 25357 ft | 407 kts | 359° |
| 2026-05-07 19:01 | 49.31879 | -1.73660 | 24911 ft | 404 kts | 359° |
| 2026-05-07 19:01 | 49.34190 | -1.73573 | 24542 ft | 403 kts | 359° |
| 2026-05-07 19:02 | 49.36980 | -1.73467 | 24094 ft | 400 kts | 359° |
| 2026-05-07 19:02 | 49.39758 | -1.73362 | 23629 ft | 399 kts | 359° |
| 2026-05-07 19:02 | 49.42532 | -1.73256 | 23108 ft | 397 kts | 359° |
| 2026-05-07 19:02 | 49.45278 | -1.73152 | 22626 ft | 394 kts | 359° |
| 2026-05-07 19:03 | 49.48012 | -1.73047 | 22159 ft | 391 kts | 359° |
| 2026-05-07 19:03 | 49.50717 | -1.72943 | 21722 ft | 388 kts | 360° |
| 2026-05-07 19:03 | 49.53402 | -1.72841 | 21282 ft | 385 kts | 359° |
| 2026-05-07 19:03 | 49.56068 | -1.72738 | 20839 ft | 382 kts | 359° |
| 2026-05-07 19:04 | 49.58715 | -1.72644 | 20405 ft | 379 kts | 358° |
| 2026-05-07 19:04 | 49.61325 | -1.72948 | 19960 ft | 374 kts | 348° |
| 2026-05-07 19:04 | 49.63869 | -1.73676 | 19550 ft | 371 kts | 346° |
| 2026-05-07 19:04 | 49.66389 | -1.74453 | 19127 ft | 369 kts | 346° |
| 2026-05-07 19:05 | 49.68861 | -1.75220 | 18712 ft | 366 kts | 346° |
| 2026-05-07 19:05 | 49.71357 | -1.75985 | 18285 ft | 365 kts | 347° |
| 2026-05-07 19:05 | 49.73854 | -1.76740 | 17785 ft | 366 kts | 347° |
| 2026-05-07 19:05 | 49.76341 | -1.77482 | 17351 ft | 362 kts | 347° |
| 2026-05-07 19:06 | 49.78807 | -1.78213 | 16917 ft | 359 kts | 347° |
| 2026-05-07 19:06 | 49.83677 | -1.79653 | 16087 ft | 354 kts | 347° |
| 2026-05-07 19:06 | 49.86079 | -1.80364 | 15659 ft | 352 kts | 347° |
| 2026-05-07 19:07 | 49.88481 | -1.81076 | 15250 ft | 350 kts | 347° |
| 2026-05-07 19:07 | 49.90857 | -1.81781 | 14885 ft | 346 kts | 347° |
| 2026-05-07 19:07 | 49.93184 | -1.82471 | 14532 ft | 343 kts | 347° |
| 2026-05-07 19:07 | 49.95516 | -1.83164 | 14182 ft | 340 kts | 347° |
| 2026-05-07 19:08 | 49.97834 | -1.83853 | 13836 ft | 338 kts | 347° |
| 2026-05-07 19:08 | 50.00145 | -1.84465 | 13439 ft | 336 kts | 353° |
| 2026-05-07 19:08 | 50.02470 | -1.84356 | 13070 ft | 331 kts | 5° |
| 2026-05-07 19:08 | 50.04716 | -1.83966 | 12735 ft | 320 kts | 5° |
| 2026-05-07 19:09 | 50.06891 | -1.83599 | 12414 ft | 309 kts | 4° |
| 2026-05-07 19:09 | 50.09016 | -1.83278 | 12115 ft | 306 kts | 4° |
| 2026-05-07 19:09 | 50.11130 | -1.82979 | 11805 ft | 304 kts | 3° |
| 2026-05-07 19:09 | 50.13207 | -1.82693 | 11507 ft | 303 kts | 3° |
| 2026-05-07 19:10 | 50.15283 | -1.82189 | 11201 ft | 302 kts | 12° |
| 2026-05-07 19:10 | 50.17304 | -1.81320 | 10903 ft | 301 kts | 15° |
| 2026-05-07 19:10 | 50.19304 | -1.80368 | 10603 ft | 300 kts | 15° |
| 2026-05-07 19:10 | 50.21292 | -1.79416 | 10301 ft | 298 kts | 15° |
| 2026-05-07 19:11 | 50.23257 | -1.78489 | 10146 ft | 291 kts | 15° |
| 2026-05-07 19:11 | 50.25176 | -1.77598 | 9976 ft | 285 kts | 14° |
| 2026-05-07 19:11 | 50.27078 | -1.76726 | 9668 ft | 285 kts | 14° |
| 2026-05-07 19:11 | 50.28973 | -1.75864 | 9376 ft | 283 kts | 14° |
| 2026-05-07 19:12 | 50.30854 | -1.75012 | 9092 ft | 281 kts | 14° |
| 2026-05-07 19:12 | 50.32690 | -1.74182 | 8818 ft | 279 kts | 14° |
| 2026-05-07 19:12 | 50.34546 | -1.73345 | 8545 ft | 277 kts | 14° |
| 2026-05-07 19:12 | 50.36387 | -1.72514 | 8274 ft | 275 kts | 14° |
| 2026-05-07 19:13 | 50.38220 | -1.71686 | 8000 ft | 273 kts | 14° |
| 2026-05-07 19:13 | 50.40042 | -1.70863 | 7738 ft | 272 kts | 14° |
| 2026-05-07 19:13 | 50.41851 | -1.70046 | 7536 ft | 267 kts | 15° |
| 2026-05-07 19:13 | 50.43612 | -1.69249 | 7415 ft | 260 kts | 14° |
| 2026-05-07 19:14 | 50.45326 | -1.68473 | 7294 ft | 252 kts | 14° |
| 2026-05-07 19:14 | 50.46967 | -1.67730 | 7224 ft | 239 kts | 14° |
| 2026-05-07 19:14 | 50.48517 | -1.67027 | 7104 ft | 225 kts | 15° |
| 2026-05-07 19:14 | 50.49969 | -1.66360 | 7038 ft | 210 kts | 16° |
| 2026-05-07 19:15 | 50.51269 | -1.65538 | 7004 ft | 196 kts | 22° |
| 2026-05-07 19:15 | 50.52534 | -1.64643 | 6738 ft | 202 kts | 23° |
| 2026-05-07 19:15 | 50.53784 | -1.63754 | 6500 ft | 199 kts | 23° |
| 2026-05-07 19:15 | 50.55039 | -1.62866 | 6235 ft | 198 kts | 23° |
| 2026-05-07 19:16 | 50.56330 | -1.61957 | 6012 ft | 210 kts | 23° |
| 2026-05-07 19:16 | 50.57702 | -1.60996 | 5769 ft | 219 kts | 24° |
| 2026-05-07 19:16 | 50.59110 | -1.60012 | 5517 ft | 223 kts | 24° |
| 2026-05-07 19:16 | 50.60538 | -1.59015 | 5265 ft | 225 kts | 24° |
| 2026-05-07 19:17 | 50.61957 | -1.58026 | 4997 ft | 221 kts | 24° |
| 2026-05-07 19:17 | 50.63346 | -1.57058 | 4735 ft | 216 kts | 25° |
| 2026-05-07 19:17 | 50.64742 | -1.56230 | 4452 ft | 214 kts | 10° |
| 2026-05-07 19:17 | 50.66187 | -1.56617 | 4194 ft | 215 kts | 331° |
| 2026-05-07 19:18 | 50.67340 | -1.58102 | 4067 ft | 215 kts | 322° |
| 2026-05-07 19:18 | 50.68635 | -1.59318 | 4042 ft | 219 kts | 332° |
| 2026-05-07 19:18 | 50.69936 | -1.60484 | 3994 ft | 216 kts | 330° |
| 2026-05-07 19:18 | 50.71199 | -1.61641 | 3986 ft | 203 kts | 330° |
| 2026-05-07 19:19 | 50.72394 | -1.62744 | 4003 ft | 200 kts | 330° |
| 2026-05-07 19:19 | 50.73599 | -1.63861 | 3996 ft | 199 kts | 330° |
| 2026-05-07 19:19 | 50.74768 | -1.64945 | 3981 ft | 191 kts | 330° |
| 2026-05-07 19:19 | 50.75890 | -1.65989 | 3980 ft | 186 kts | 330° |
| 2026-05-07 19:20 | 50.76829 | -1.67351 | 3991 ft | 186 kts | 301° |
| 2026-05-07 19:20 | 50.77410 | -1.69148 | 3917 ft | 182 kts | 295° |
| 2026-05-07 19:20 | 50.77967 | -1.70955 | 3590 ft | 185 kts | 295° |
| 2026-05-07 19:20 | 50.78522 | -1.72760 | 3273 ft | 186 kts | 295° |
| 2026-05-07 19:21 | 50.79086 | -1.74593 | 2973 ft | 185 kts | 295° |
| 2026-05-07 19:21 | 50.79648 | -1.76424 | 2690 ft | 185 kts | 295° |
| 2026-05-07 19:21 | 50.80211 | -1.78261 | 2542 ft | 185 kts | 295° |
| 2026-05-07 19:21 | 50.80771 | -1.80086 | 2498 ft | 184 kts | 295° |
| 2026-05-07 19:22 | 50.81327 | -1.81902 | 2503 ft | 184 kts | 295° |
| 2026-05-07 19:22 | 50.81885 | -1.83725 | 2504 ft | 185 kts | 295° |
| 2026-05-07 19:22 | 50.82390 | -1.85598 | 2492 ft | 186 kts | 281° |
| 2026-05-07 19:22 | 50.82381 | -1.87590 | 2497 ft | 180 kts | 260° |
| 2026-05-07 19:23 | 50.82214 | -1.89553 | 2478 ft | 181 kts | 260° |
| 2026-05-07 19:23 | 50.82052 | -1.91494 | 2483 ft | 181 kts | 260° |
| 2026-05-07 19:23 | 50.81890 | -1.93467 | 2482 ft | 181 kts | 260° |
| 2026-05-07 19:23 | 50.81727 | -1.95442 | 2478 ft | 181 kts | 261° |
| 2026-05-07 19:24 | 50.81563 | -1.97411 | 2487 ft | 181 kts | 260° |
| 2026-05-07 19:24 | 50.81400 | -1.99398 | 2490 ft | 182 kts | 260° |
| 2026-05-07 19:24 | 50.81237 | -2.01390 | 2483 ft | 183 kts | 260° |
| 2026-05-07 19:24 | 50.80851 | -2.03273 | 2468 ft | 179 kts | 233° |
| 2026-05-07 19:25 | 50.79971 | -2.04448 | 2462 ft | 157 kts | 198° |
| 2026-05-07 19:25 | 50.78967 | -2.04570 | 2515 ft | 145 kts | 170° |
| 2026-05-07 19:25 | 50.77990 | -2.04359 | 2487 ft | 144 kts | 170° |
| 2026-05-07 19:25 | 50.77018 | -2.04154 | 2475 ft | 138 kts | 169° |
| 2026-05-07 19:26 | 50.76177 | -2.03515 | 2471 ft | 136 kts | 133° |
| 2026-05-07 19:26 | 50.75681 | -2.02264 | 2415 ft | 133 kts | 121° |
| 2026-05-07 19:26 | 50.75232 | -2.01008 | 2074 ft | 130 kts | 114° |
| 2026-05-07 19:26 | 50.75260 | -1.99639 | 1917 ft | 133 kts | 65° |
| 2026-05-07 19:27 | 50.75685 | -1.98342 | 1732 ft | 134 kts | 78° |
| 2026-05-07 19:27 | 50.75881 | -1.96944 | 1553 ft | 131 kts | 78° |
| 2026-05-07 19:27 | 50.76127 | -1.95558 | 1399 ft | 133 kts | 77° |
| 2026-05-07 19:27 | 50.76358 | -1.94184 | 1219 ft | 130 kts | 78° |
| 2026-05-07 19:28 | 50.76587 | -1.92809 | 1056 ft | 129 kts | 78° |
| 2026-05-07 19:28 | 50.76818 | -1.91415 | 858 ft | 133 kts | 78° |
| 2026-05-07 19:28 | 50.77065 | -1.90007 | 667 ft | 132 kts | 74° |
| 2026-05-07 19:28 | 50.77313 | -1.88613 | 465 ft | 134 kts | 80° |
| 2026-05-07 19:29 | 50.77529 | -1.87163 | 310 ft | 138 kts | 79° |
| 2026-05-07 19:29 | 50.77771 | -1.85683 | 122 ft | 137 kts | 78° |
| 2026-05-07 19:29 | 50.77998 | -1.84323 | 43 ft | 112 kts | 75° |
| 2026-05-07 19:29 | 50.78134 | -1.83474 | 45 ft | 50 kts | 76° |
| 2026-05-07 19:30 | 50.78189 | -1.83144 | 43 ft | 16 kts | 75° |
| 2026-05-07 19:30 | 50.78167 | -1.83040 | 43 ft | 9 kts | 168° |
| 2026-05-07 19:30 | 50.78122 | -1.83098 | 42 ft | 9 kts | 232° |
| 2026-05-07 19:30 | 50.78084 | -1.83182 | 40 ft | 9 kts | 237° |
| 2026-05-07 19:31 | 50.78050 | -1.83269 | 42 ft | 9 kts | 241° |
| 2026-05-07 19:31 | 50.78023 | -1.83361 | 42 ft | 9 kts | 245° |
| 2026-05-07 19:31 | 50.77992 | -1.83451 | 42 ft | 9 kts | 232° |
| 2026-05-07 19:31 | 50.77935 | -1.83490 | 41 ft | 7 kts | 175° |
| 2026-05-07 19:32 | 50.77884 | -1.83478 | 40 ft | 8 kts | 172° |
| 2026-05-07 19:32 | 50.77841 | -1.83469 | 40 ft | 5 kts | 175° |
| 2026-05-07 19:32 | 50.77806 | -1.83464 | 42 ft | 5 kts | 175° |
| 2026-05-07 19:32 | 50.77768 | -1.83462 | 42 ft | 6 kts | 180° |
| 2026-05-07 19:33 | 50.77718 | -1.83468 | 42 ft | 8 kts | 190° |
| 2026-05-07 19:33 | 50.77684 | -1.83476 | 42 ft | 3 kts | 187° |
| 2026-05-07 19:33 | 50.77661 | -1.83511 | 42 ft | 7 kts | 262° |
| 2026-05-07 19:33 | 50.77663 | -1.83555 | 41 ft | 1 kts | 271° |
| 2026-05-07 19:34 | 50.77663 | -1.83564 | 41 ft | 0 kts | 268° |